Main page
METAR-TAF:

METAR-TAF

Airports :

Lampang Airport

Lampang, Thailand

latitude: 18-17N, longitude: 099-31E, elevation: 241 m

Current weather observation

The report was made 46 minutes ago, at 01:00 UTC
Wind 3 kt from the West
Temperature 30°C
Humidity 66%
Pressure 1009 hPa
Visibility: 7000 m

METAR: VTCL 250100Z 28003KT 7000 NSC 30/23 Q1009 NOSIG

Time: 08:46 (01:46 UTC)

Forecast

The report was made 2 hours and 46 minutes ago, at 23:00 UTC
Forecast valid from 25 at 00 UTC to 25 at 24 UTC
Wind 5 kt from the Southeast
Visibility: 8000 m
Few clouds at a height of 3000 ft
Becoming
from 25 at 02 UTC to 25 at 04 UTC
Wind 5 kt from the Southwest
Becoming
from 25 at 09 UTC to 25 at 11 UTC
Wind 5 kt from the South

TAF: VTCL 242300Z 2500/2524 14005KT 8000 FEW030 BECMG 2502/2504 23005KT BECMG 2509/2511 17005KT

Weather observations and forecasts of more than 4000 airports (METAR and TAF reports).

The available stations are represented by yellow and red dots on the map.

Hover mouse over dot to see the name of the station.

Then click to see weather observations and forecasts.

To change the map : click on the green buttons with a black cross to zoom in, on the green button with a dash to zoom out, or on the green arrows for adjacent maps.


METAR-TAF: